METAR Formatted Surface Weather Observation
Issued by NWS

Home | Current Version | Previous Version | Text Only | Print | Product List | Glossary On
Versions: 1 2 3 4 5 6
000
SAUS41 KPHI 221504
MTRNEL
METAR KNEL 221500Z AUTO 29015G21KT 10SM CLR 21/10 A2990 RMK AO2
SLP123 T02110100 51025



USA.gov is the U.S. government's official web portal to all federal, state and local government web resources and services.